sensor_id;sensor_type;location;lat;lon;timestamp;P1;durP1;ratioP1;P2;durP2;ratioP2
79229;SDS011;68663;49.122;17.544;2023-04-09T00:38:38;9.53;;;8.17;;
79229;SDS011;68663;49.122;17.544;2023-04-09T00:41:04;9.77;;;8.32;;
79229;SDS011;68663;49.122;17.544;2023-04-09T00:43:30;7.88;;;6.93;;
79229;SDS011;68663;49.122;17.544;2023-04-09T00:45:55;8.65;;;7.28;;
79229;SDS011;68663;49.122;17.544;2023-04-09T00:48:22;9.88;;;7.78;;
79229;SDS011;68663;49.122;17.544;2023-04-09T00:58:05;8.73;;;7.05;;
79229;SDS011;68663;49.122;17.544;2023-04-09T01:00:31;8.57;;;7.60;;
79229;SDS011;68663;49.122;17.544;2023-04-09T01:02:56;8.63;;;7.03;;
79229;SDS011;68663;49.122;17.544;2023-04-09T01:05:27;8.23;;;7.10;;
79229;SDS011;68663;49.122;17.544;2023-04-09T01:11:13;8.30;;;7.45;;
79229;SDS011;68663;49.122;17.544;2023-04-09T01:13:54;8.40;;;7.50;;
79229;SDS011;68663;49.122;17.544;2023-04-09T05:39:31;5.50;;;4.70;;
79229;SDS011;68663;49.122;17.544;2023-04-09T05:41:57;6.65;;;5.53;;
79229;SDS011;68663;49.122;17.544;2023-04-09T05:44:22;8.13;;;6.38;;
79229;SDS011;68663;49.122;17.544;2023-04-09T05:46:48;7.57;;;6.78;;
79229;SDS011;68663;49.122;17.544;2023-04-09T05:49:13;10.55;;;6.53;;
79229;SDS011;68663;49.122;17.544;2023-04-09T05:51:38;7.82;;;6.05;;
79229;SDS011;68663;49.122;17.544;2023-04-09T05:54:04;9.95;;;6.63;;
79229;SDS011;68663;49.122;17.544;2023-04-09T05:56:29;8.55;;;6.38;;
79229;SDS011;68663;49.122;17.544;2023-04-09T05:58:55;7.95;;;6.28;;
79229;SDS011;68663;49.122;17.544;2023-04-09T06:01:20;7.80;;;6.47;;
79229;SDS011;68663;49.122;17.544;2023-04-09T06:03:46;7.43;;;5.70;;
79229;SDS011;68663;49.122;17.544;2023-04-09T06:06:11;7.32;;;5.78;;
79229;SDS011;68663;49.122;17.544;2023-04-09T06:08:37;8.27;;;4.93;;
79229;SDS011;68663;49.122;17.544;2023-04-09T06:11:03;6.40;;;5.28;;
79229;SDS011;68663;49.122;17.544;2023-04-09T06:13:28;6.88;;;4.95;;
79229;SDS011;68663;49.122;17.544;2023-04-09T06:23:10;16.83;;;6.90;;
79229;SDS011;68663;49.122;17.544;2023-04-09T06:32:52;17.95;;;8.15;;
79229;SDS011;68663;49.122;17.544;2023-04-09T06:35:18;17.92;;;7.90;;
79229;SDS011;68663;49.122;17.544;2023-04-09T06:37:43;18.00;;;8.13;;
79229;SDS011;68663;49.122;17.544;2023-04-09T06:40:08;20.33;;;7.95;;
79229;SDS011;68663;49.122;17.544;2023-04-09T07:06:48;13.17;;;7.30;;
79229;SDS011;68663;49.122;17.544;2023-04-09T07:09:15;20.23;;;8.38;;
79229;SDS011;68663;49.122;17.544;2023-04-09T07:11:42;18.30;;;7.60;;
79229;SDS011;68663;49.122;17.544;2023-04-09T07:14:07;18.90;;;8.55;;
79229;SDS011;68663;49.122;17.544;2023-04-09T07:38:22;15.70;;;6.83;;
79229;SDS011;68663;49.122;17.544;2023-04-09T07:40:47;15.52;;;8.20;;
79229;SDS011;68663;49.122;17.544;2023-04-09T07:43:13;18.13;;;11.65;;
79229;SDS011;68663;49.122;17.544;2023-04-09T07:45:38;19.80;;;14.57;;
79229;SDS011;68663;49.122;17.544;2023-04-09T07:48:04;19.65;;;16.15;;
79229;SDS011;68663;49.122;17.544;2023-04-09T07:50:29;20.55;;;18.33;;
79229;SDS011;68663;49.122;17.544;2023-04-09T07:52:55;23.48;;;20.05;;
79229;SDS011;68663;49.122;17.544;2023-04-09T07:55:20;23.10;;;19.80;;
79229;SDS011;68663;49.122;17.544;2023-04-09T07:57:45;21.45;;;18.95;;
79229;SDS011;68663;49.122;17.544;2023-04-09T08:00:12;25.30;;;22.55;;
79229;SDS011;68663;49.122;17.544;2023-04-09T08:02:38;24.05;;;21.45;;
79229;SDS011;68663;49.122;17.544;2023-04-09T08:05:03;25.77;;;22.98;;
79229;SDS011;68663;49.122;17.544;2023-04-09T08:07:29;24.20;;;20.67;;
79229;SDS011;68663;49.122;17.544;2023-04-09T08:09:54;22.40;;;20.08;;
79229;SDS011;68663;49.122;17.544;2023-04-09T08:12:20;24.52;;;20.27;;
79229;SDS011;68663;49.122;17.544;2023-04-09T08:14:45;26.58;;;19.13;;
79229;SDS011;68663;49.122;17.544;2023-04-09T08:17:11;33.28;;;19.33;;
79229;SDS011;68663;49.122;17.544;2023-04-09T08:19:36;29.02;;;19.08;;
79229;SDS011;68663;49.122;17.544;2023-04-09T08:22:01;26.83;;;17.48;;
79229;SDS011;68663;49.122;17.544;2023-04-09T08:24:27;23.45;;;18.13;;
79229;SDS011;68663;49.122;17.544;2023-04-09T08:26:52;23.08;;;17.65;;
79229;SDS011;68663;49.122;17.544;2023-04-09T08:29:18;20.85;;;17.40;;
79229;SDS011;68663;49.122;17.544;2023-04-09T08:31:44;24.60;;;17.33;;
79229;SDS011;68663;49.122;17.544;2023-04-09T08:34:09;21.67;;;18.10;;
79229;SDS011;68663;49.122;17.544;2023-04-09T08:36:35;21.45;;;17.02;;
79229;SDS011;68663;49.122;17.544;2023-04-09T08:39:01;19.48;;;17.13;;
79229;SDS011;68663;49.122;17.544;2023-04-09T08:41:27;19.00;;;16.95;;
79229;SDS011;68663;49.122;17.544;2023-04-09T08:43:53;20.15;;;16.90;;
79229;SDS011;68663;49.122;17.544;2023-04-09T08:46:20;18.70;;;15.38;;
79229;SDS011;68663;49.122;17.544;2023-04-09T08:48:47;21.05;;;16.48;;
79229;SDS011;68663;49.122;17.544;2023-04-09T08:51:13;18.75;;;16.80;;
79229;SDS011;68663;49.122;17.544;2023-04-09T08:53:43;17.55;;;15.73;;
79229;SDS011;68663;49.122;17.544;2023-04-09T08:56:11;22.73;;;16.65;;
79229;SDS011;68663;49.122;17.544;2023-04-09T08:58:39;23.67;;;15.73;;
79229;SDS011;68663;49.122;17.544;2023-04-09T09:04:03;17.92;;;15.05;;
79229;SDS011;68663;49.122;17.544;2023-04-09T09:06:33;17.58;;;15.27;;
79229;SDS011;68663;49.122;17.544;2023-04-09T09:11:30;17.50;;;15.05;;
79229;SDS011;68663;49.122;17.544;2023-04-09T09:13:57;20.55;;;15.43;;
79229;SDS011;68663;49.122;17.544;2023-04-09T09:16:24;17.50;;;15.60;;
79229;SDS011;68663;49.122;17.544;2023-04-09T09:18:49;15.90;;;14.02;;
79229;SDS011;68663;49.122;17.544;2023-04-09T09:21:16;19.20;;;14.80;;
79229;SDS011;68663;49.122;17.544;2023-04-09T09:23:43;17.30;;;14.50;;
79229;SDS011;68663;49.122;17.544;2023-04-09T09:26:12;16.50;;;14.80;;
79229;SDS011;68663;49.122;17.544;2023-04-09T09:28:50;17.65;;;15.77;;
79229;SDS011;68663;49.122;17.544;2023-04-09T09:31:17;14.98;;;13.50;;
79229;SDS011;68663;49.122;17.544;2023-04-09T09:33:43;20.90;;;14.23;;
79229;SDS011;68663;49.122;17.544;2023-04-09T18:25:02;20.80;;;11.30;;
79229;SDS011;68663;49.122;17.544;2023-04-09T18:27:28;21.25;;;10.98;;
79229;SDS011;68663;49.122;17.544;2023-04-09T18:29:54;19.98;;;11.70;;
79229;SDS011;68663;49.122;17.544;2023-04-09T18:32:19;17.90;;;11.77;;
79229;SDS011;68663;49.122;17.544;2023-04-09T18:34:46;21.90;;;12.88;;
79229;SDS011;68663;49.122;17.544;2023-04-09T18:37:12;17.13;;;11.48;;
79229;SDS011;68663;49.122;17.544;2023-04-09T18:39:38;21.13;;;11.85;;
79229;SDS011;68663;49.122;17.544;2023-04-09T18:42:04;20.92;;;10.77;;
79229;SDS011;68663;49.122;17.544;2023-04-09T18:44:29;15.40;;;9.98;;
79229;SDS011;68663;49.122;17.544;2023-04-09T18:46:57;17.95;;;12.32;;
79229;SDS011;68663;49.122;17.544;2023-04-09T18:49:23;15.95;;;10.48;;
79229;SDS011;68663;49.122;17.544;2023-04-09T18:51:50;19.58;;;10.93;;
79229;SDS011;68663;49.122;17.544;2023-04-09T18:54:16;25.17;;;11.38;;
79229;SDS011;68663;49.122;17.544;2023-04-09T18:56:41;20.37;;;10.47;;
79229;SDS011;68663;49.122;17.544;2023-04-09T18:59:08;16.23;;;10.65;;
79229;SDS011;68663;49.122;17.544;2023-04-09T19:01:34;17.00;;;10.03;;
79229;SDS011;68663;49.122;17.544;2023-04-09T19:03:59;19.33;;;11.50;;
79229;SDS011;68663;49.122;17.544;2023-04-09T19:06:25;14.82;;;10.48;;
79229;SDS011;68663;49.122;17.544;2023-04-09T19:08:51;21.15;;;11.65;;
79229;SDS011;68663;49.122;17.544;2023-04-09T19:11:22;17.98;;;9.88;;
79229;SDS011;68663;49.122;17.544;2023-04-09T19:13:48;14.30;;;10.13;;
79229;SDS011;68663;49.122;17.544;2023-04-09T19:16:13;16.70;;;9.35;;
79229;SDS011;68663;49.122;17.544;2023-04-09T19:18:39;13.65;;;9.40;;
79229;SDS011;68663;49.122;17.544;2023-04-09T19:21:05;17.08;;;11.10;;
79229;SDS011;68663;49.122;17.544;2023-04-09T19:23:32;18.50;;;9.95;;
79229;SDS011;68663;49.122;17.544;2023-04-09T19:26:00;13.77;;;9.65;;
79229;SDS011;68663;49.122;17.544;2023-04-09T19:28:26;14.13;;;9.55;;
79229;SDS011;68663;49.122;17.544;2023-04-09T19:30:52;15.73;;;9.68;;
79229;SDS011;68663;49.122;17.544;2023-04-09T19:33:24;15.23;;;10.10;;
79229;SDS011;68663;49.122;17.544;2023-04-09T19:35:51;16.02;;;10.05;;
79229;SDS011;68663;49.122;17.544;2023-04-09T19:38:17;17.05;;;9.90;;
79229;SDS011;68663;49.122;17.544;2023-04-09T19:40:43;16.48;;;9.45;;
79229;SDS011;68663;49.122;17.544;2023-04-09T19:43:09;13.93;;;10.07;;
79229;SDS011;68663;49.122;17.544;2023-04-09T19:45:38;15.23;;;9.50;;
79229;SDS011;68663;49.122;17.544;2023-04-09T19:48:04;15.65;;;9.45;;
79229;SDS011;68663;49.122;17.544;2023-04-09T19:50:39;12.85;;;9.50;;
79229;SDS011;68663;49.122;17.544;2023-04-09T19:55:31;14.18;;;9.80;;
79229;SDS011;68663;49.122;17.544;2023-04-09T19:57:57;16.48;;;9.80;;
79229;SDS011;68663;49.122;17.544;2023-04-09T20:00:22;13.05;;;9.02;;
79229;SDS011;68663;49.122;17.544;2023-04-09T20:02:48;13.18;;;9.30;;
79229;SDS011;68663;49.122;17.544;2023-04-09T20:05:13;15.20;;;8.80;;
79229;SDS011;68663;49.122;17.544;2023-04-09T20:07:39;15.50;;;9.82;;
79229;SDS011;68663;49.122;17.544;2023-04-09T20:10:05;32.03;;;10.25;;
79229;SDS011;68663;49.122;17.544;2023-04-09T20:12:32;11.65;;;9.07;;
79229;SDS011;68663;49.122;17.544;2023-04-09T20:14:58;18.10;;;9.82;;
79229;SDS011;68663;49.122;17.544;2023-04-09T20:17:26;12.38;;;9.65;;
79229;SDS011;68663;49.122;17.544;2023-04-09T20:19:51;16.33;;;9.15;;
79229;SDS011;68663;49.122;17.544;2023-04-09T20:22:16;14.50;;;9.23;;
79229;SDS011;68663;49.122;17.544;2023-04-09T20:24:42;14.10;;;9.57;;
79229;SDS011;68663;49.122;17.544;2023-04-09T20:27:07;15.23;;;9.98;;
79229;SDS011;68663;49.122;17.544;2023-04-09T20:29:33;15.25;;;9.60;;
79229;SDS011;68663;49.122;17.544;2023-04-09T20:31:59;12.57;;;8.80;;
79229;SDS011;68663;49.122;17.544;2023-04-09T20:34:24;12.35;;;8.70;;
79229;SDS011;68663;49.122;17.544;2023-04-09T20:36:53;12.05;;;8.30;;
79229;SDS011;68663;49.122;17.544;2023-04-09T20:39:19;13.30;;;8.90;;
79229;SDS011;68663;49.122;17.544;2023-04-09T20:41:55;13.82;;;7.95;;
79229;SDS011;68663;49.122;17.544;2023-04-09T20:44:20;13.88;;;9.43;;
79229;SDS011;68663;49.122;17.544;2023-04-09T20:46:46;12.82;;;8.75;;
79229;SDS011;68663;49.122;17.544;2023-04-09T20:49:12;11.82;;;8.15;;
79229;SDS011;68663;49.122;17.544;2023-04-09T20:51:37;13.57;;;8.85;;
79229;SDS011;68663;49.122;17.544;2023-04-09T20:54:03;11.98;;;8.20;;
79229;SDS011;68663;49.122;17.544;2023-04-09T20:56:29;12.45;;;9.20;;
79229;SDS011;68663;49.122;17.544;2023-04-09T20:58:54;16.23;;;9.73;;
79229;SDS011;68663;49.122;17.544;2023-04-09T21:01:21;12.40;;;8.13;;
79229;SDS011;68663;49.122;17.544;2023-04-09T21:03:47;12.38;;;8.88;;
79229;SDS011;68663;49.122;17.544;2023-04-09T21:06:13;14.77;;;8.80;;
79229;SDS011;68663;49.122;17.544;2023-04-09T21:08:41;12.98;;;8.85;;
79229;SDS011;68663;49.122;17.544;2023-04-09T21:11:07;11.55;;;8.80;;
79229;SDS011;68663;49.122;17.544;2023-04-09T21:13:33;13.43;;;9.52;;
79229;SDS011;68663;49.122;17.544;2023-04-09T21:15:58;11.90;;;9.05;;
79229;SDS011;68663;49.122;17.544;2023-04-09T21:18:23;11.93;;;8.10;;
79229;SDS011;68663;49.122;17.544;2023-04-09T21:20:49;11.80;;;8.32;;
79229;SDS011;68663;49.122;17.544;2023-04-09T21:23:14;11.18;;;8.52;;
79229;SDS011;68663;49.122;17.544;2023-04-09T21:25:40;11.10;;;7.85;;
79229;SDS011;68663;49.122;17.544;2023-04-09T21:28:06;10.80;;;8.23;;
79229;SDS011;68663;49.122;17.544;2023-04-09T21:30:33;11.68;;;7.90;;
79229;SDS011;68663;49.122;17.544;2023-04-09T21:33:00;11.93;;;7.75;;
79229;SDS011;68663;49.122;17.544;2023-04-09T21:35:26;11.10;;;7.70;;
79229;SDS011;68663;49.122;17.544;2023-04-09T21:37:52;12.40;;;8.32;;
79229;SDS011;68663;49.122;17.544;2023-04-09T21:40:17;11.85;;;8.45;;
79229;SDS011;68663;49.122;17.544;2023-04-09T21:42:43;11.25;;;8.05;;
79229;SDS011;68663;49.122;17.544;2023-04-09T21:45:08;11.45;;;8.05;;
79229;SDS011;68663;49.122;17.544;2023-04-09T21:47:34;11.40;;;7.90;;
79229;SDS011;68663;49.122;17.544;2023-04-09T21:50:00;13.82;;;7.72;;
79229;SDS011;68663;49.122;17.544;2023-04-09T21:52:25;9.80;;;7.43;;
79229;SDS011;68663;49.122;17.544;2023-04-09T21:54:50;9.83;;;7.30;;
79229;SDS011;68663;49.122;17.544;2023-04-09T21:57:16;8.82;;;7.45;;
79229;SDS011;68663;49.122;17.544;2023-04-09T21:59:42;8.98;;;7.28;;
79229;SDS011;68663;49.122;17.544;2023-04-09T22:02:07;10.53;;;7.33;;
79229;SDS011;68663;49.122;17.544;2023-04-09T22:04:33;12.40;;;7.95;;
79229;SDS011;68663;49.122;17.544;2023-04-09T22:06:59;12.02;;;8.02;;
79229;SDS011;68663;49.122;17.544;2023-04-09T22:09:25;8.70;;;7.13;;
79229;SDS011;68663;49.122;17.544;2023-04-09T22:11:50;13.57;;;7.72;;
79229;SDS011;68663;49.122;17.544;2023-04-09T22:14:17;14.45;;;7.28;;
79229;SDS011;68663;49.122;17.544;2023-04-09T22:16:43;10.95;;;8.32;;
79229;SDS011;68663;49.122;17.544;2023-04-09T22:19:09;11.45;;;7.20;;
79229;SDS011;68663;49.122;17.544;2023-04-09T22:21:36;8.75;;;6.85;;
79229;SDS011;68663;49.122;17.544;2023-04-09T22:24:02;14.68;;;8.10;;
79229;SDS011;68663;49.122;17.544;2023-04-09T22:26:27;11.35;;;7.05;;
79229;SDS011;68663;49.122;17.544;2023-04-09T22:28:53;9.53;;;7.73;;
79229;SDS011;68663;49.122;17.544;2023-04-09T22:31:18;10.47;;;7.30;;
79229;SDS011;68663;49.122;17.544;2023-04-09T22:33:43;9.98;;;7.20;;
79229;SDS011;68663;49.122;17.544;2023-04-09T22:36:09;9.60;;;6.88;;
79229;SDS011;68663;49.122;17.544;2023-04-09T22:38:34;11.85;;;8.30;;
79229;SDS011;68663;49.122;17.544;2023-04-09T22:41:00;9.00;;;6.63;;
79229;SDS011;68663;49.122;17.544;2023-04-09T22:43:26;8.90;;;6.95;;
79229;SDS011;68663;49.122;17.544;2023-04-09T22:45:51;8.83;;;6.87;;
79229;SDS011;68663;49.122;17.544;2023-04-09T22:48:18;11.77;;;7.65;;
79229;SDS011;68663;49.122;17.544;2023-04-09T22:50:45;10.02;;;6.65;;
79229;SDS011;68663;49.122;17.544;2023-04-09T22:53:10;10.45;;;6.63;;
79229;SDS011;68663;49.122;17.544;2023-04-09T22:55:36;8.95;;;6.70;;
79229;SDS011;68663;49.122;17.544;2023-04-09T22:58:02;9.75;;;6.97;;
79229;SDS011;68663;49.122;17.544;2023-04-09T23:00:28;9.55;;;6.75;;
79229;SDS011;68663;49.122;17.544;2023-04-09T23:02:53;10.38;;;7.43;;
79229;SDS011;68663;49.122;17.544;2023-04-09T23:05:19;7.10;;;6.17;;
79229;SDS011;68663;49.122;17.544;2023-04-09T23:07:44;7.97;;;6.38;;
79229;SDS011;68663;49.122;17.544;2023-04-09T23:10:10;9.73;;;6.82;;
79229;SDS011;68663;49.122;17.544;2023-04-09T23:12:41;8.15;;;5.93;;
79229;SDS011;68663;49.122;17.544;2023-04-09T23:15:07;10.00;;;6.43;;
79229;SDS011;68663;49.122;17.544;2023-04-09T23:17:32;7.93;;;6.10;;
79229;SDS011;68663;49.122;17.544;2023-04-09T23:19:59;9.18;;;6.95;;
79229;SDS011;68663;49.122;17.544;2023-04-09T23:22:24;9.27;;;6.65;;
79229;SDS011;68663;49.122;17.544;2023-04-09T23:24:51;6.93;;;5.68;;
79229;SDS011;68663;49.122;17.544;2023-04-09T23:27:16;8.35;;;6.75;;
79229;SDS011;68663;49.122;17.544;2023-04-09T23:29:42;9.70;;;6.53;;
79229;SDS011;68663;49.122;17.544;2023-04-09T23:32:07;12.93;;;6.97;;
79229;SDS011;68663;49.122;17.544;2023-04-09T23:34:33;8.93;;;6.28;;
79229;SDS011;68663;49.122;17.544;2023-04-09T23:36:58;8.40;;;6.23;;
79229;SDS011;68663;49.122;17.544;2023-04-09T23:39:24;11.13;;;6.40;;
79229;SDS011;68663;49.122;17.544;2023-04-09T23:41:49;7.87;;;6.33;;
79229;SDS011;68663;49.122;17.544;2023-04-09T23:44:15;8.30;;;6.32;;
79229;SDS011;68663;49.122;17.544;2023-04-09T23:46:40;8.48;;;6.53;;
79229;SDS011;68663;49.122;17.544;2023-04-09T23:49:05;7.97;;;5.87;;
79229;SDS011;68663;49.122;17.544;2023-04-09T23:51:31;9.48;;;6.82;;
79229;SDS011;68663;49.122;17.544;2023-04-09T23:53:56;6.78;;;6.07;;
79229;SDS011;68663;49.122;17.544;2023-04-09T23:56:22;7.27;;;5.97;;
79229;SDS011;68663;49.122;17.544;2023-04-09T23:58:47;7.35;;;5.88;;
